createdAt,value
2023-04-17T00:00:06.339Z,0.00
2023-04-17T00:01:06.300Z,0.00
2023-04-17T00:02:06.315Z,0.00
2023-04-17T00:03:06.375Z,0.00
2023-04-17T00:04:06.461Z,0.00
2023-04-17T00:05:06.378Z,0.00
2023-04-17T00:06:06.270Z,0.00
2023-04-17T00:07:06.199Z,0.00
2023-04-17T00:08:06.190Z,0.00
2023-04-17T00:09:06.200Z,0.00
2023-04-17T00:10:06.174Z,0.00
2023-04-17T00:11:08.517Z,0.00
2023-04-17T00:12:06.115Z,0.00
2023-04-17T00:13:06.090Z,0.00
2023-04-17T00:14:06.086Z,0.00
2023-04-17T00:15:06.059Z,0.00
2023-04-17T00:16:06.063Z,0.00
2023-04-17T00:17:06.062Z,0.00
2023-04-17T00:18:06.025Z,0.00
2023-04-17T00:19:06.017Z,0.00
2023-04-17T00:20:05.976Z,0.00
2023-04-17T00:21:05.968Z,0.00
2023-04-17T00:22:05.982Z,0.00
2023-04-17T00:23:05.946Z,0.00
2023-04-17T00:24:05.974Z,0.00
2023-04-17T00:25:05.917Z,0.00
2023-04-17T00:26:05.873Z,0.00
2023-04-17T00:27:05.900Z,0.00
2023-04-17T00:28:05.913Z,0.00
2023-04-17T00:29:05.827Z,0.00
2023-04-17T00:30:05.806Z,0.00
2023-04-17T00:31:05.803Z,0.00
2023-04-17T00:32:05.856Z,0.00
2023-04-17T00:33:05.812Z,0.00
2023-04-17T00:34:05.792Z,0.00
2023-04-17T00:35:05.731Z,0.00
2023-04-17T00:36:05.712Z,0.00
2023-04-17T00:37:05.702Z,0.00
2023-04-17T00:38:05.685Z,0.00
2023-04-17T00:39:05.665Z,0.00
2023-04-17T00:40:05.645Z,0.00
2023-04-17T00:41:05.631Z,0.00
2023-04-17T00:42:05.617Z,0.00
2023-04-17T00:43:05.593Z,0.00
2023-04-17T00:44:05.602Z,0.00
2023-04-17T00:45:05.585Z,0.00
2023-04-17T00:46:05.613Z,0.00
2023-04-17T00:47:05.536Z,0.00
2023-04-17T00:48:05.559Z,0.00
2023-04-17T00:49:05.492Z,0.00
2023-04-17T00:50:05.517Z,0.00
2023-04-17T00:51:05.483Z,0.00
2023-04-17T00:52:05.442Z,0.00
2023-04-17T00:53:05.463Z,0.00
2023-04-17T00:54:05.450Z,0.00
2023-04-17T00:55:05.400Z,0.00
2023-04-17T00:56:05.389Z,0.00
2023-04-17T00:57:05.373Z,0.00
2023-04-17T00:58:05.341Z,0.00
2023-04-17T00:59:05.332Z,0.00
2023-04-17T01:00:05.308Z,0.00
2023-04-17T01:01:05.430Z,0.00
2023-04-17T01:02:05.351Z,0.00
2023-04-17T01:03:05.452Z,0.00
2023-04-17T01:04:05.385Z,0.00
2023-04-17T01:05:05.227Z,0.00
2023-04-17T01:06:05.241Z,0.00
2023-04-17T01:07:05.195Z,0.00
2023-04-17T01:08:05.215Z,0.00
2023-04-17T01:09:05.168Z,0.00
2023-04-17T01:10:05.165Z,0.00
2023-04-17T01:11:05.124Z,0.00
2023-04-17T01:12:05.108Z,0.00
2023-04-17T01:13:05.142Z,0.00
2023-04-17T01:14:05.074Z,0.00
2023-04-17T01:15:05.058Z,0.00
2023-04-17T01:16:05.066Z,0.00
2023-04-17T01:17:05.100Z,0.00
2023-04-17T01:18:05.133Z,0.00
2023-04-17T01:19:05.003Z,0.00
2023-04-17T01:20:05.057Z,0.00
2023-04-17T01:21:04.962Z,0.00
2023-04-17T01:22:04.944Z,0.00
2023-04-17T01:23:04.922Z,0.00
2023-04-17T01:24:04.920Z,0.00
2023-04-17T01:25:04.898Z,0.00
2023-04-17T01:26:04.869Z,0.00
2023-04-17T01:27:04.863Z,0.00
2023-04-17T01:28:04.834Z,0.00
2023-04-17T01:29:04.821Z,0.00
2023-04-17T01:30:04.879Z,0.00
2023-04-17T01:31:04.836Z,0.00
2023-04-17T01:32:04.797Z,0.00
2023-04-17T01:33:04.800Z,0.00
2023-04-17T01:34:04.734Z,0.00
2023-04-17T01:35:04.777Z,0.00
2023-04-17T01:36:04.745Z,0.00
2023-04-17T01:37:04.746Z,0.00
2023-04-17T01:38:04.665Z,0.00
2023-04-17T01:39:04.653Z,0.00
2023-04-17T01:40:04.638Z,0.00
2023-04-17T01:41:04.636Z,0.00
2023-04-17T01:42:04.654Z,0.00
2023-04-17T01:43:04.589Z,0.00
2023-04-17T01:44:05.291Z,0.00
2023-04-17T01:45:04.553Z,0.00
2023-04-17T01:46:04.568Z,0.00
2023-04-17T01:47:04.517Z,0.00
2023-04-17T01:48:04.661Z,0.00
2023-04-17T01:49:04.480Z,0.00
2023-04-17T01:50:04.473Z,0.00
2023-04-17T01:51:04.453Z,0.00
2023-04-17T01:52:04.430Z,0.00
2023-04-17T01:53:04.446Z,0.00
2023-04-17T01:54:04.405Z,0.00
2023-04-17T01:55:04.403Z,0.00
2023-04-17T01:56:04.369Z,0.00
2023-04-17T01:57:04.391Z,0.00
2023-04-17T01:58:04.330Z,0.00
2023-04-17T01:59:04.318Z,0.00
2023-04-17T02:00:04.301Z,0.00
2023-04-17T02:01:04.294Z,0.00
2023-04-17T02:02:04.423Z,0.00
2023-04-17T02:03:04.388Z,0.00
2023-04-17T02:04:04.310Z,0.00
2023-04-17T02:05:04.219Z,0.00
2023-04-17T02:06:04.202Z,0.00
2023-04-17T02:07:04.207Z,0.00
2023-04-17T02:08:04.196Z,0.00
2023-04-17T02:09:04.161Z,0.00
2023-04-17T02:10:04.140Z,0.00
2023-04-17T02:11:04.115Z,0.00
2023-04-17T02:12:04.157Z,0.00
2023-04-17T02:13:04.090Z,0.00
2023-04-17T02:14:04.125Z,0.00
2023-04-17T02:15:04.049Z,0.00
2023-04-17T02:16:04.045Z,0.00
2023-04-17T02:17:04.011Z,0.00
2023-04-17T02:18:04.036Z,0.00
2023-04-17T02:19:03.983Z,0.00
2023-04-17T02:20:03.994Z,0.00
2023-04-17T02:21:03.949Z,0.00
2023-04-17T02:22:03.933Z,0.00
2023-04-17T02:23:03.911Z,0.00
2023-04-17T02:24:03.892Z,0.00
2023-04-17T02:25:03.879Z,0.00
2023-04-17T02:26:03.866Z,0.00
2023-04-17T02:27:10.321Z,0.00
2023-04-17T02:28:03.833Z,0.00
2023-04-17T02:29:03.832Z,0.00
2023-04-17T02:30:03.802Z,0.00
2023-04-17T02:31:03.805Z,0.00
2023-04-17T02:32:03.761Z,0.00
2023-04-17T02:33:03.809Z,0.00
2023-04-17T02:34:03.768Z,0.00
2023-04-17T02:35:03.717Z,0.00
2023-04-17T02:36:03.692Z,0.00
2023-04-17T02:37:03.676Z,0.00
2023-04-17T02:38:03.658Z,0.00
2023-04-17T02:39:03.648Z,0.00
2023-04-17T02:40:03.621Z,0.00
2023-04-17T02:41:03.615Z,0.00
2023-04-17T02:42:03.585Z,0.00
2023-04-17T02:43:03.603Z,0.00
2023-04-17T02:44:03.575Z,0.00
2023-04-17T02:45:03.555Z,0.00
2023-04-17T02:46:03.532Z,0.00
2023-04-17T02:47:03.545Z,0.00
2023-04-17T02:48:03.557Z,0.00
2023-04-17T02:49:03.468Z,0.00
2023-04-17T02:50:03.453Z,0.00
2023-04-17T02:51:03.435Z,0.00
2023-04-17T02:52:03.424Z,0.00
2023-04-17T02:53:03.408Z,0.00
2023-04-17T02:54:03.390Z,0.00
2023-04-17T02:55:03.374Z,0.00
2023-04-17T02:56:03.373Z,0.00
2023-04-17T02:57:03.335Z,0.00
2023-04-17T02:58:03.358Z,0.00
2023-04-17T02:59:03.318Z,0.00
2023-04-17T03:00:03.297Z,0.00
2023-04-17T03:01:03.356Z,0.00
2023-04-17T03:02:03.347Z,0.00
2023-04-17T03:03:03.494Z,0.00
2023-04-17T03:04:03.429Z,0.00
2023-04-17T03:05:03.206Z,0.00
2023-04-17T03:06:03.204Z,0.00
2023-04-17T03:07:03.168Z,0.00
2023-04-17T03:08:03.154Z,0.00
2023-04-17T03:09:03.161Z,0.00
2023-04-17T03:10:03.124Z,0.00
2023-04-17T03:11:03.102Z,0.00
2023-04-17T03:12:03.092Z,0.00
2023-04-17T03:13:03.064Z,0.00
2023-04-17T03:14:03.049Z,0.00
2023-04-17T03:15:03.071Z,0.00
2023-04-17T03:16:03.037Z,0.00
2023-04-17T03:17:03.012Z,0.00
2023-04-17T03:18:03.018Z,0.00
2023-04-17T03:19:02.973Z,0.00
2023-04-17T03:20:03.004Z,0.00
2023-04-17T03:21:02.931Z,0.00
2023-04-17T03:22:02.916Z,0.00
2023-04-17T03:23:02.908Z,0.00
2023-04-17T03:24:02.886Z,0.00
2023-04-17T03:25:02.863Z,0.00
2023-04-17T03:26:02.925Z,0.00
2023-04-17T03:27:02.833Z,0.00
2023-04-17T03:28:02.813Z,0.00
2023-04-17T03:29:02.803Z,0.00
2023-04-17T03:30:02.790Z,0.00
2023-04-17T03:31:02.764Z,0.00
2023-04-17T03:32:02.832Z,0.00
2023-04-17T03:33:02.910Z,0.00
2023-04-17T03:34:02.718Z,0.00
2023-04-17T03:35:02.713Z,0.00
2023-04-17T03:36:02.681Z,0.00
2023-04-17T03:37:02.678Z,0.00
2023-04-17T03:38:02.643Z,0.00
2023-04-17T03:39:02.625Z,0.00
2023-04-17T03:40:02.615Z,0.00
2023-04-17T03:41:02.588Z,0.00
2023-04-17T03:42:02.632Z,0.00
2023-04-17T03:43:02.555Z,0.00
2023-04-17T03:44:02.550Z,0.00
2023-04-17T03:45:02.528Z,0.00
2023-04-17T03:46:02.538Z,0.00
2023-04-17T03:47:02.495Z,0.00
2023-04-17T03:48:02.659Z,0.00
2023-04-17T03:49:02.468Z,0.00
2023-04-17T03:50:02.442Z,0.00
2023-04-17T03:51:03.345Z,0.00
2023-04-17T03:52:02.422Z,0.00
2023-04-17T03:53:02.387Z,0.00
2023-04-17T03:54:02.394Z,0.00
2023-04-17T03:55:02.352Z,0.00
2023-04-17T03:56:02.331Z,0.00
2023-04-17T03:57:02.316Z,0.00
2023-04-17T03:58:02.300Z,0.00
2023-04-17T03:59:02.307Z,0.00
2023-04-17T04:00:02.274Z,0.00
2023-04-17T04:01:02.290Z,0.00
2023-04-17T04:02:02.294Z,0.00
2023-04-17T04:03:02.540Z,0.00
2023-04-17T04:04:02.264Z,0.00
2023-04-17T04:05:02.219Z,0.00
2023-04-17T04:06:02.184Z,0.00
2023-04-17T04:07:02.160Z,0.00
2023-04-17T04:08:02.138Z,0.00
2023-04-17T04:09:02.107Z,0.00
2023-04-17T04:10:02.088Z,0.00
2023-04-17T04:11:02.176Z,0.00
2023-04-17T04:12:02.079Z,0.00
2023-04-17T04:13:02.041Z,0.00
2023-04-17T04:14:02.032Z,0.00
2023-04-17T04:15:02.007Z,0.00
2023-04-17T04:16:02.012Z,0.00
2023-04-17T04:17:02.011Z,0.00
2023-04-17T04:18:02.023Z,0.00
2023-04-17T04:19:01.955Z,0.00
2023-04-17T04:20:01.915Z,0.00
2023-04-17T04:21:01.921Z,0.00
2023-04-17T04:22:01.877Z,0.00
2023-04-17T04:23:01.932Z,0.00
2023-04-17T04:24:01.848Z,0.00
2023-04-17T04:25:01.828Z,0.00
2023-04-17T04:26:01.973Z,0.00
2023-04-17T04:27:01.796Z,0.00
2023-04-17T04:28:01.817Z,0.00
2023-04-17T04:29:01.787Z,0.00
2023-04-17T04:30:01.757Z,0.00
2023-04-17T04:31:01.751Z,0.00
2023-04-17T04:32:01.714Z,0.00
2023-04-17T04:33:01.717Z,0.00
2023-04-17T04:34:01.711Z,0.00
2023-04-17T04:35:01.689Z,0.00
2023-04-17T04:36:01.982Z,0.00
2023-04-17T04:37:01.629Z,0.00
2023-04-17T04:38:01.605Z,0.00
2023-04-17T04:39:01.596Z,0.00
2023-04-17T04:40:01.628Z,0.00
2023-04-17T04:41:01.612Z,0.00
2023-04-17T04:42:01.554Z,0.00
2023-04-17T04:43:01.521Z,0.00
2023-04-17T04:44:01.531Z,0.00
2023-04-17T04:45:01.580Z,0.00
2023-04-17T04:46:01.484Z,0.00
2023-04-17T04:47:01.629Z,5.63
2023-04-17T04:48:01.451Z,5.63
2023-04-17T04:49:01.418Z,5.63
2023-04-17T04:50:01.429Z,5.63
2023-04-17T04:51:01.492Z,5.63
2023-04-17T04:52:01.422Z,5.63
2023-04-17T04:53:01.356Z,5.63
2023-04-17T04:54:01.347Z,5.63
2023-04-17T04:55:01.343Z,5.63
2023-04-17T04:56:01.295Z,5.63
2023-04-17T04:57:01.300Z,5.63
2023-04-17T04:58:01.271Z,5.63
2023-04-17T04:59:01.254Z,5.63
2023-04-17T05:00:01.255Z,5.63
2023-04-17T05:01:01.270Z,5.63
2023-04-17T05:02:01.330Z,5.63
2023-04-17T05:03:01.570Z,5.63
2023-04-17T05:04:01.405Z,5.63
2023-04-17T05:05:01.271Z,11.25
2023-04-17T05:06:01.138Z,11.25
2023-04-17T05:07:01.136Z,11.25
2023-04-17T05:08:01.141Z,11.25
2023-04-17T05:09:01.138Z,11.25
2023-04-17T05:10:01.069Z,11.25
2023-04-17T05:11:01.051Z,11.25
2023-04-17T05:12:01.026Z,11.25
2023-04-17T05:13:01.038Z,11.25
2023-04-17T05:14:01.002Z,11.25
2023-04-17T05:15:00.988Z,11.25
2023-04-17T05:16:01.766Z,11.25
2023-04-17T05:17:00.944Z,11.25
2023-04-17T05:18:00.959Z,11.25
2023-04-17T05:19:00.960Z,11.25
2023-04-17T05:20:00.915Z,16.88
2023-04-17T05:21:00.881Z,16.88
2023-04-17T05:22:00.861Z,16.88
2023-04-17T05:23:00.867Z,16.88
2023-04-17T05:24:00.827Z,16.88
2023-04-17T05:25:00.836Z,16.88
2023-04-17T05:26:00.797Z,16.88
2023-04-17T05:27:00.774Z,16.88
2023-04-17T05:28:00.752Z,16.88
2023-04-17T05:29:00.737Z,16.88
2023-04-17T05:30:00.773Z,16.88
2023-04-17T05:31:00.722Z,16.88
2023-04-17T05:32:00.829Z,22.50
2023-04-17T05:33:00.697Z,22.50
2023-04-17T05:34:00.650Z,22.50
2023-04-17T05:35:00.647Z,22.50
2023-04-17T05:36:00.644Z,22.50
2023-04-17T05:37:00.608Z,22.50
2023-04-17T05:38:00.588Z,22.50
2023-04-17T05:39:00.573Z,22.50
2023-04-17T05:40:00.644Z,22.50
2023-04-17T05:41:00.533Z,22.50
2023-04-17T05:42:00.514Z,22.50
2023-04-17T05:43:00.493Z,22.50
2023-04-17T05:44:00.477Z,22.50
2023-04-17T05:45:00.474Z,28.13
2023-04-17T05:46:00.492Z,28.13
2023-04-17T05:47:00.426Z,28.13
2023-04-17T05:48:00.439Z,28.13
2023-04-17T05:49:00.408Z,28.13
2023-04-17T05:50:00.371Z,33.75
2023-04-17T05:51:00.392Z,33.75
2023-04-17T05:52:00.364Z,33.75
2023-04-17T05:53:00.321Z,33.75
2023-04-17T05:54:00.304Z,33.75
2023-04-17T05:55:00.319Z,33.75
2023-04-17T05:56:00.301Z,33.75
2023-04-17T05:57:00.419Z,33.75
2023-04-17T05:58:01.214Z,33.75
2023-04-17T05:59:00.222Z,33.75
2023-04-17T06:00:00.241Z,39.38
2023-04-17T06:01:00.234Z,39.38
2023-04-17T06:02:00.432Z,39.38
2023-04-17T06:03:00.257Z,39.38
2023-04-17T06:04:01.922Z,39.38
2023-04-17T06:05:00.339Z,39.38
2023-04-17T06:06:00.209Z,39.38
2023-04-17T06:07:00.128Z,39.38
2023-04-17T06:08:00.069Z,39.38
2023-04-17T06:09:00.051Z,39.38
2023-04-17T06:10:00.040Z,39.38
2023-04-17T06:11:00.068Z,45.00
2023-04-17T06:12:00.005Z,45.00
2023-04-17T06:13:00.015Z,45.00
2023-04-17T06:13:59.967Z,45.00
2023-04-17T06:14:59.950Z,45.00
2023-04-17T06:15:59.940Z,45.00
2023-04-17T06:16:59.988Z,45.00
2023-04-17T06:17:59.987Z,45.00
2023-04-17T06:18:59.888Z,45.00
2023-04-17T06:19:59.871Z,45.00
2023-04-17T06:20:59.849Z,45.00
2023-04-17T06:21:59.838Z,45.00
2023-04-17T06:22:59.841Z,45.00
2023-04-17T06:23:59.800Z,45.00
2023-04-17T06:24:59.825Z,45.00
2023-04-17T06:25:59.768Z,45.00
2023-04-17T06:26:59.749Z,50.63
2023-04-17T06:27:59.763Z,50.63
2023-04-17T06:28:59.764Z,50.63
2023-04-17T06:29:59.725Z,50.63
2023-04-17T06:30:59.754Z,50.63
2023-04-17T06:31:59.679Z,50.63
2023-04-17T06:32:59.668Z,50.63
2023-04-17T06:33:59.634Z,50.63
2023-04-17T06:34:59.901Z,56.25
2023-04-17T06:35:59.601Z,56.25
2023-04-17T06:36:59.612Z,56.25
2023-04-17T06:37:59.594Z,56.25
2023-04-17T06:38:59.546Z,61.88
2023-04-17T06:39:59.582Z,61.88
2023-04-17T06:40:59.513Z,61.88
2023-04-17T06:41:59.495Z,61.88
2023-04-17T06:42:59.486Z,61.88
2023-04-17T06:43:59.463Z,61.88
2023-04-17T06:44:59.453Z,61.88
2023-04-17T06:45:59.483Z,61.88
2023-04-17T06:47:01.753Z,61.88
2023-04-17T06:47:59.462Z,61.88
2023-04-17T06:48:59.381Z,67.50
2023-04-17T06:49:59.362Z,67.50
2023-04-17T06:50:59.360Z,67.50
2023-04-17T06:51:59.366Z,67.50
2023-04-17T06:52:59.311Z,67.50
2023-04-17T06:53:59.330Z,67.50
2023-04-17T06:54:59.305Z,67.50
2023-04-17T06:55:59.264Z,67.50
2023-04-17T06:56:59.276Z,67.50
2023-04-17T06:57:59.252Z,73.13
2023-04-17T06:59:01.323Z,73.13
2023-04-17T06:59:59.284Z,73.13
2023-04-17T07:00:59.187Z,73.13
2023-04-17T07:01:59.231Z,73.13
2023-04-17T07:02:59.227Z,78.75
2023-04-17T07:03:59.212Z,78.75
2023-04-17T07:04:59.219Z,78.75
2023-04-17T07:05:59.096Z,78.75
2023-04-17T07:06:59.123Z,78.75
2023-04-17T07:07:59.066Z,78.75
2023-04-17T07:08:59.064Z,78.75
2023-04-17T07:09:59.055Z,67.50
2023-04-17T07:10:59.012Z,67.50
2023-04-17T07:11:59.000Z,61.88
2023-04-17T07:12:58.984Z,61.88
2023-04-17T07:13:58.964Z,56.25
2023-04-17T07:14:58.985Z,56.25
2023-04-17T07:15:59.003Z,56.25
2023-04-17T07:16:58.924Z,56.25
2023-04-17T07:17:58.955Z,56.25
2023-04-17T07:18:58.882Z,61.88
2023-04-17T07:19:58.878Z,61.88
2023-04-17T07:20:58.906Z,67.50
2023-04-17T07:21:58.832Z,67.50
2023-04-17T07:22:58.822Z,73.13
2023-04-17T07:23:58.815Z,73.13
2023-04-17T07:24:58.791Z,78.75
2023-04-17T07:25:58.811Z,84.38
2023-04-17T07:26:58.754Z,84.38
2023-04-17T07:27:58.732Z,90.00
2023-04-17T07:28:58.718Z,95.63
2023-04-17T07:29:58.750Z,95.63
2023-04-17T07:30:58.718Z,95.63
2023-04-17T07:31:58.824Z,101.25
2023-04-17T07:32:58.700Z,101.25
2023-04-17T07:33:58.637Z,101.25
2023-04-17T07:34:58.632Z,106.88
2023-04-17T07:35:58.632Z,106.88
2023-04-17T07:36:58.613Z,106.88
2023-04-17T07:37:58.583Z,106.88
2023-04-17T07:38:58.566Z,106.88
2023-04-17T07:39:58.599Z,106.88
2023-04-17T07:40:58.529Z,106.88
2023-04-17T07:41:58.507Z,106.88
2023-04-17T07:42:58.512Z,112.50
2023-04-17T07:43:59.099Z,112.50
2023-04-17T07:44:58.469Z,112.50
2023-04-17T07:45:58.493Z,112.50
2023-04-17T07:46:58.517Z,118.13
2023-04-17T07:47:58.455Z,118.13
2023-04-17T07:48:58.439Z,123.75
2023-04-17T07:49:58.393Z,123.75
2023-04-17T07:50:58.366Z,123.75
2023-04-17T07:51:58.400Z,123.75
2023-04-17T07:52:58.341Z,123.75
2023-04-17T07:53:58.322Z,123.75
2023-04-17T07:54:58.306Z,123.75
2023-04-17T07:55:58.328Z,123.75
2023-04-17T07:56:58.365Z,123.75
2023-04-17T07:57:58.256Z,123.75
2023-04-17T07:58:58.259Z,129.38
2023-04-17T07:59:58.227Z,123.75
2023-04-17T08:00:58.227Z,129.38
2023-04-17T08:01:58.320Z,135.00
2023-04-17T08:02:58.452Z,140.63
2023-04-17T08:03:58.661Z,185.63
2023-04-17T08:04:58.251Z,140.63
2023-04-17T08:05:58.136Z,135.00
2023-04-17T08:06:58.125Z,140.63
2023-04-17T08:07:58.111Z,140.63
2023-04-17T08:08:58.137Z,146.25
2023-04-17T08:09:58.088Z,146.25
2023-04-17T08:10:58.060Z,140.63
2023-04-17T08:11:58.444Z,140.63
2023-04-17T08:12:58.039Z,140.63
2023-04-17T08:13:58.085Z,146.25
2023-04-17T08:14:58.009Z,146.25
2023-04-17T08:15:57.993Z,157.50
2023-04-17T08:16:58.068Z,146.25
2023-04-17T08:17:58.015Z,146.25
2023-04-17T08:18:57.954Z,146.25
2023-04-17T08:19:57.984Z,146.25
2023-04-17T08:20:58.015Z,157.50
2023-04-17T08:21:57.897Z,168.75
2023-04-17T08:22:57.882Z,196.88
2023-04-17T08:23:57.873Z,191.25
2023-04-17T08:24:57.998Z,247.50
2023-04-17T08:25:57.848Z,191.25
2023-04-17T08:26:57.830Z,174.38
2023-04-17T08:27:57.842Z,163.13
2023-04-17T08:28:57.801Z,157.50
2023-04-17T08:29:57.780Z,157.50
2023-04-17T08:30:57.830Z,151.88
2023-04-17T08:32:12.586Z,157.50
2023-04-17T08:32:58.026Z,168.75
2023-04-17T08:34:10.495Z,191.25
2023-04-17T08:34:57.710Z,208.13
2023-04-17T08:35:57.706Z,191.25
2023-04-17T08:36:57.685Z,151.88
2023-04-17T08:37:57.669Z,129.38
2023-04-17T08:38:57.656Z,123.75
2023-04-17T08:39:57.639Z,157.50
2023-04-17T08:40:57.655Z,174.38
2023-04-17T08:41:57.613Z,258.75
2023-04-17T08:42:57.599Z,180.00
2023-04-17T08:43:57.626Z,157.50
2023-04-17T08:44:57.575Z,129.38
2023-04-17T08:45:57.590Z,146.25
2023-04-17T08:46:57.549Z,185.63
2023-04-17T08:47:57.606Z,168.75
2023-04-17T08:48:57.515Z,180.00
2023-04-17T08:49:57.539Z,180.00
2023-04-17T08:50:57.530Z,202.50
2023-04-17T08:51:57.474Z,213.75
2023-04-17T08:52:57.503Z,191.25
2023-04-17T08:53:57.460Z,185.63
2023-04-17T08:54:57.438Z,174.38
2023-04-17T08:55:57.436Z,180.00
2023-04-17T08:56:57.413Z,202.50
2023-04-17T08:57:57.407Z,219.38
2023-04-17T08:58:57.384Z,213.75
2023-04-17T08:59:57.397Z,202.50
2023-04-17T09:00:57.406Z,213.75
2023-04-17T09:01:57.422Z,202.50
2023-04-17T09:02:57.686Z,202.50
2023-04-17T09:03:57.561Z,196.88
2023-04-17T09:04:57.424Z,191.25
2023-04-17T09:05:57.344Z,202.50
2023-04-17T09:06:57.280Z,202.50
2023-04-17T09:07:57.266Z,191.25
2023-04-17T09:08:57.441Z,191.25
2023-04-17T09:09:57.251Z,196.88
2023-04-17T09:10:57.226Z,191.25
2023-04-17T09:11:57.247Z,219.38
2023-04-17T09:12:57.198Z,208.13
2023-04-17T09:13:57.187Z,208.13
2023-04-17T09:14:57.176Z,208.13
2023-04-17T09:15:57.230Z,213.75
2023-04-17T09:16:57.148Z,219.38
2023-04-17T09:17:57.147Z,213.75
2023-04-17T09:18:57.192Z,219.38
2023-04-17T09:19:57.113Z,247.50
2023-04-17T09:20:57.099Z,236.25
2023-04-17T09:21:57.095Z,264.38
2023-04-17T09:22:57.080Z,264.38
2023-04-17T09:23:57.065Z,286.88
2023-04-17T09:24:57.786Z,247.50
2023-04-17T09:25:57.044Z,247.50
2023-04-17T09:26:57.031Z,270.00
2023-04-17T09:27:57.062Z,270.00
2023-04-17T09:28:57.060Z,281.25
2023-04-17T09:29:56.992Z,270.00
2023-04-17T09:30:57.020Z,264.38
2023-04-17T09:31:57.003Z,270.00
2023-04-17T09:32:57.027Z,264.38
2023-04-17T09:33:56.965Z,258.75
2023-04-17T09:34:56.957Z,264.38
2023-04-17T09:35:56.932Z,241.88
2023-04-17T09:36:56.956Z,247.50
2023-04-17T09:37:56.911Z,253.13
2023-04-17T09:38:56.904Z,253.13
2023-04-17T09:39:56.904Z,258.75
2023-04-17T09:40:57.087Z,241.88
2023-04-17T09:41:56.873Z,247.50
2023-04-17T09:42:56.873Z,264.38
2023-04-17T09:43:56.860Z,258.75
2023-04-17T09:44:56.847Z,236.25
2023-04-17T09:45:56.850Z,236.25
2023-04-17T09:46:56.879Z,230.63
2023-04-17T09:47:56.871Z,236.25
2023-04-17T09:48:56.807Z,258.75
2023-04-17T09:49:56.809Z,247.50
2023-04-17T09:50:56.806Z,264.38
2023-04-17T09:51:56.780Z,247.50
2023-04-17T09:52:56.774Z,253.13
2023-04-17T09:53:56.759Z,258.75
2023-04-17T09:54:56.753Z,264.38
2023-04-17T09:55:56.742Z,264.38
2023-04-17T09:56:56.743Z,258.75
2023-04-17T09:57:56.747Z,270.00
2023-04-17T09:58:56.711Z,264.38
2023-04-17T09:59:56.708Z,275.63
2023-04-17T10:00:56.717Z,264.38
2023-04-17T10:01:56.750Z,264.38
2023-04-17T10:02:56.832Z,264.38
2023-04-17T10:03:56.782Z,292.50
2023-04-17T10:04:56.647Z,264.38
2023-04-17T10:05:56.641Z,264.38
2023-04-17T10:06:56.681Z,247.50
2023-04-17T10:07:56.650Z,247.50
2023-04-17T10:08:56.607Z,247.50
2023-04-17T10:09:56.614Z,247.50
2023-04-17T10:10:56.605Z,253.13
2023-04-17T10:11:56.580Z,253.13
2023-04-17T10:12:56.617Z,253.13
2023-04-17T10:13:56.571Z,371.25
2023-04-17T10:14:56.551Z,371.25
2023-04-17T10:15:56.579Z,331.88
2023-04-17T10:16:56.588Z,315.00
2023-04-17T10:17:56.637Z,303.75
2023-04-17T10:18:56.582Z,320.63
2023-04-17T10:19:56.509Z,382.50
2023-04-17T10:20:56.497Z,360.00
2023-04-17T10:21:56.504Z,365.63
2023-04-17T10:22:56.570Z,337.50
2023-04-17T10:23:56.478Z,281.25
2023-04-17T10:24:56.465Z,315.00
2023-04-17T10:25:56.454Z,331.88
2023-04-17T10:26:56.449Z,315.00
2023-04-17T10:27:56.442Z,270.00
2023-04-17T10:28:56.506Z,253.13
2023-04-17T10:29:56.481Z,253.13
2023-04-17T10:30:56.419Z,264.38
2023-04-17T10:31:56.436Z,264.38
2023-04-17T10:32:56.435Z,258.75
2023-04-17T10:33:56.403Z,241.88
2023-04-17T10:34:56.389Z,230.63
2023-04-17T10:35:56.441Z,191.25
2023-04-17T10:36:56.374Z,202.50
2023-04-17T10:37:56.377Z,213.75
2023-04-17T10:38:56.357Z,219.38
2023-04-17T10:39:56.352Z,281.25
2023-04-17T10:40:56.348Z,331.88
2023-04-17T10:41:56.336Z,258.75
2023-04-17T10:42:56.331Z,185.63
2023-04-17T10:43:56.322Z,191.25
2023-04-17T10:44:56.326Z,241.88
2023-04-17T10:45:56.345Z,270.00
2023-04-17T10:46:56.295Z,281.25
2023-04-17T10:47:56.300Z,286.88
2023-04-17T10:48:56.314Z,247.50
2023-04-17T10:49:56.277Z,180.00
2023-04-17T10:50:56.333Z,174.38
2023-04-17T10:51:56.256Z,185.63
2023-04-17T10:52:56.298Z,174.38
2023-04-17T10:53:56.244Z,185.63
2023-04-17T10:54:56.232Z,225.00
2023-04-17T10:55:56.225Z,208.13
2023-04-17T10:56:56.231Z,208.13
2023-04-17T10:57:56.209Z,168.75
2023-04-17T10:58:56.200Z,129.38
2023-04-17T10:59:56.223Z,135.00
2023-04-17T11:00:56.213Z,174.38
2023-04-17T11:01:56.288Z,286.88
2023-04-17T11:02:56.262Z,303.75
2023-04-17T11:03:56.171Z,241.88
2023-04-17T11:04:56.231Z,247.50
2023-04-17T11:05:56.159Z,258.75
2023-04-17T11:06:56.150Z,202.50
2023-04-17T11:07:56.149Z,163.13
2023-04-17T11:08:57.403Z,208.13
2023-04-17T11:09:56.106Z,168.75
2023-04-17T11:10:56.095Z,140.63
2023-04-17T11:11:56.137Z,163.13
2023-04-17T11:12:56.108Z,180.00
2023-04-17T11:13:56.068Z,208.13
2023-04-17T11:14:56.061Z,236.25
2023-04-17T11:15:56.053Z,264.38
2023-04-17T11:16:56.100Z,247.50
2023-04-17T11:17:56.109Z,219.38
2023-04-17T11:18:56.030Z,219.38
2023-04-17T11:19:56.026Z,247.50
2023-04-17T11:20:56.024Z,270.00
2023-04-17T11:21:56.001Z,320.63
2023-04-17T11:22:55.993Z,241.88
2023-04-17T11:23:56.026Z,196.88
2023-04-17T11:24:55.980Z,202.50
2023-04-17T11:25:55.983Z,202.50
2023-04-17T11:26:55.959Z,196.88
2023-04-17T11:27:55.966Z,213.75
2023-04-17T11:28:55.948Z,236.25
2023-04-17T11:29:55.946Z,241.88
2023-04-17T11:30:55.945Z,236.25
2023-04-17T11:31:55.942Z,202.50
2023-04-17T11:32:56.096Z,95.63
2023-04-17T11:33:55.909Z,196.88
2023-04-17T11:34:55.910Z,185.63
2023-04-17T11:35:55.888Z,219.38
2023-04-17T11:36:55.876Z,230.63
2023-04-17T11:37:55.872Z,264.38
2023-04-17T11:38:55.894Z,286.88
2023-04-17T11:39:55.866Z,225.00
2023-04-17T11:40:55.871Z,219.38
2023-04-17T11:41:55.865Z,202.50
2023-04-17T11:42:55.828Z,258.75
2023-04-17T11:43:55.821Z,292.50
2023-04-17T11:44:55.844Z,315.00
2023-04-17T11:45:55.819Z,337.50
2023-04-17T11:46:55.812Z,163.13
2023-04-17T11:47:55.876Z,129.38
2023-04-17T11:48:55.813Z,123.75
2023-04-17T11:49:55.799Z,118.13
2023-04-17T11:50:55.782Z,123.75
2023-04-17T11:51:56.680Z,135.00
2023-04-17T11:52:55.753Z,174.38
2023-04-17T11:53:55.747Z,135.00
2023-04-17T11:54:55.742Z,309.38
2023-04-17T11:55:55.726Z,303.75
2023-04-17T11:56:55.797Z,326.25
2023-04-17T11:57:55.705Z,343.13
2023-04-17T11:58:55.697Z,365.63
2023-04-17T11:59:55.689Z,393.75
2023-04-17T12:00:55.687Z,365.63
2023-04-17T12:01:55.688Z,303.75
2023-04-17T12:02:55.784Z,157.50
2023-04-17T12:03:55.792Z,371.25
2023-04-17T12:04:55.739Z,399.38
2023-04-17T12:05:55.731Z,371.25
2023-04-17T12:06:56.982Z,146.25
2023-04-17T12:07:55.652Z,123.75
2023-04-17T12:08:55.636Z,123.75
2023-04-17T12:09:55.615Z,118.13
2023-04-17T12:10:55.609Z,123.75
2023-04-17T12:11:55.635Z,123.75
2023-04-17T12:12:55.603Z,129.38
2023-04-17T12:13:55.601Z,123.75
2023-04-17T12:14:55.591Z,320.63
2023-04-17T12:15:55.581Z,365.63
2023-04-17T12:16:55.560Z,185.63
2023-04-17T12:17:55.620Z,174.38
2023-04-17T12:18:55.604Z,315.00
2023-04-17T12:19:55.538Z,405.00
2023-04-17T12:20:55.534Z,421.88
2023-04-17T12:21:55.515Z,410.63
2023-04-17T12:22:55.517Z,444.38
2023-04-17T12:23:55.506Z,433.13
2023-04-17T12:24:55.525Z,421.88
2023-04-17T12:25:55.500Z,365.63
2023-04-17T12:26:55.484Z,399.38
2023-04-17T12:27:55.482Z,371.25
2023-04-17T12:28:55.514Z,382.50
2023-04-17T12:29:55.479Z,382.50
2023-04-17T12:30:55.468Z,309.38
2023-04-17T12:31:55.491Z,118.13
2023-04-17T12:32:55.515Z,174.38
2023-04-17T12:33:55.453Z,365.63
2023-04-17T12:34:55.479Z,410.63
2023-04-17T12:35:55.479Z,337.50
2023-04-17T12:36:55.466Z,433.13
2023-04-17T12:37:55.429Z,416.25
2023-04-17T12:38:55.438Z,410.63
2023-04-17T12:39:55.427Z,416.25
2023-04-17T12:40:55.479Z,399.38
2023-04-17T12:41:55.437Z,365.63
2023-04-17T12:42:55.432Z,331.88
2023-04-17T12:43:55.406Z,371.25
2023-04-17T12:44:55.408Z,393.75
2023-04-17T12:45:55.472Z,365.63
2023-04-17T12:46:55.454Z,360.00
2023-04-17T12:47:55.446Z,360.00
2023-04-17T12:48:55.387Z,258.75
2023-04-17T12:49:55.385Z,326.25
2023-04-17T12:50:55.382Z,303.75
2023-04-17T12:51:55.374Z,298.13